Time;durP1;ratioP1;P1;durP2;ratioP2;P2;SDS_P1;SDS_P2;PMS_P1;PMS_P2;Temp;Humidity;BMP_temperature;BMP_pressure;BME280_temperature;BME280_humidity;BME280_pressure;Samples;Min_cycle;Max_cycle;Signal;HPM_P1;HPM_P2
2022/10/14 00:01:20;;;;;;;341.55;22.77;;;9.70;99.90;;;;;;5036815;28;20201;-46
2022/10/14 00:03:47;;;;;;;311.23;20.42;;;9.70;99.90;;;;;;5036709;28;20416;-44
2022/10/14 00:06:18;;;;;;;303.60;20.15;;;9.70;99.90;;;;;;5042229;28;20130;-46
2022/10/14 00:08:46;;;;;;;163.77;15.18;;;9.70;99.90;;;;;;5056492;28;20471;-47
2022/10/14 00:11:17;;;;;;;133.50;15.32;;;9.70;99.90;;;;;;5057363;28;20115;-45
2022/10/14 00:13:43;;;;;;;166.13;17.05;;;9.70;99.90;;;;;;5056933;28;20040;-49
2022/10/14 00:16:20;;;;;;;152.95;17.98;;;9.80;99.90;;;;;;5056291;28;20040;-46
2022/10/14 00:18:47;;;;;;;175.32;18.73;;;9.80;99.90;;;;;;5035415;28;20059;-43
2022/10/14 00:21:12;;;;;;;153.40;18.30;;;9.80;99.90;;;;;;5037555;28;20254;-45
2022/10/14 00:23:38;;;;;;;177.23;19.60;;;9.80;99.90;;;;;;5056997;28;20036;-48
2022/10/14 00:26:04;;;;;;;105.43;17.67;;;9.70;99.90;;;;;;5043732;28;20547;-43
2022/10/14 00:28:30;;;;;;;122.75;18.98;;;9.70;99.90;;;;;;5040952;28;20071;-44
2022/10/14 00:30:58;;;;;;;131.00;19.42;;;9.80;99.90;;;;;;5056731;28;20051;-43
2022/10/14 00:33:24;;;;;;;155.25;20.65;;;9.80;99.90;;;;;;5056132;28;20482;-48
2022/10/14 00:35:58;;;;;;;120.22;20.75;;;9.80;99.90;;;;;;5042822;28;20044;-43
2022/10/14 00:38:23;;;;;;;147.68;21.55;;;9.80;99.90;;;;;;5036408;28;20471;-47
2022/10/14 00:40:49;;;;;;;107.25;19.67;;;9.80;99.90;;;;;;5036438;28;20056;-43
2022/10/14 00:43:15;;;;;;;68.28;19.02;;;9.80;99.90;;;;;;5036741;28;20491;-44
2022/10/14 00:45:41;;;;;;;88.40;19.60;;;9.80;99.90;;;;;;5053760;28;20235;-43
2022/10/14 00:48:08;;;;;;;96.68;19.98;;;9.80;99.90;;;;;;5048554;28;20045;-45
2022/10/14 00:50:34;;;;;;;233.00;26.27;;;9.80;99.90;;;;;;5051095;28;20139;-44
2022/10/14 00:53:02;;;;;;;226.45;25.45;;;9.80;99.90;;;;;;5056408;28;20047;-45
2022/10/14 00:55:28;;;;;;;246.57;24.77;;;9.80;99.90;;;;;;5054373;28;20058;-47
2022/10/14 00:57:54;;;;;;;318.58;29.50;;;9.90;99.90;;;;;;5036255;28;20099;-46
2022/10/14 01:00:22;;;;;;;288.40;30.20;;;9.90;99.90;;;;;;5035787;28;20830;-42
2022/10/14 01:02:47;;;;;;;312.20;29.58;;;9.80;99.90;;;;;;5036397;28;20094;-45
2022/10/14 01:05:16;;;;;;;213.55;24.33;;;9.90;99.90;;;;;;5041295;28;20044;-47
2022/10/14 01:07:52;;;;;;;256.20;27.60;;;9.90;99.90;;;;;;5054303;28;20385;-45
2022/10/14 01:10:18;;;;;;;250.95;26.10;;;9.90;99.90;;;;;;5038044;28;20474;-48
2022/10/14 01:13:03;;;;;;;353.90;31.15;;;9.90;99.90;;;;;;5044336;28;20144;-45
2022/10/14 01:15:44;;;;;;;234.27;25.35;;;10.00;99.90;;;;;;5056313;28;20078;-47
2022/10/14 01:18:42;;;;;;;385.65;31.25;;;10.00;99.90;;;;;;5056087;28;20056;-47
2022/10/14 01:21:41;;;;;;;341.27;30.98;;;10.00;99.90;;;;;;5033218;28;20529;-48
2022/10/14 01:24:25;;;;;;;353.25;31.92;;;10.10;99.90;;;;;;4970931;28;20453;-47
2022/10/14 01:27:08;;;;;;;303.45;30.67;;;10.00;99.90;;;;;;4988948;28;20057;-48
2022/10/14 01:29:40;;;;;;;211.13;27.50;;;10.10;99.90;;;;;;4981892;28;20502;-48
2022/10/14 01:32:11;;;;;;;370.92;34.03;;;10.10;99.90;;;;;;4995059;28;20403;-50
2022/10/14 01:34:49;;;;;;;374.83;33.53;;;10.10;99.90;;;;;;4996654;28;20064;-48
2022/10/14 01:37:20;;;;;;;405.20;34.17;;;10.10;99.90;;;;;;4997418;28;20137;-48
2022/10/14 01:39:54;;;;;;;350.67;30.55;;;10.10;99.90;;;;;;4996439;28;20049;-47
2022/10/14 01:42:30;;;;;;;403.60;34.70;;;10.00;99.90;;;;;;4996686;28;20058;-48
2022/10/14 01:45:04;;;;;;;433.85;36.28;;;10.10;99.90;;;;;;5007348;28;20058;-46
2022/10/14 01:47:32;;;;;;;313.83;29.33;;;10.10;99.90;;;;;;4980250;28;20111;-46
2022/10/14 01:50:04;;;;;;;352.25;32.47;;;10.00;99.90;;;;;;5003275;28;20664;-48
2022/10/14 01:52:38;;;;;;;321.73;28.52;;;10.10;99.90;;;;;;4996536;28;20129;-46
2022/10/14 01:55:10;;;;;;;386.08;33.00;;;10.00;99.90;;;;;;4995857;28;20130;-47
2022/10/14 01:57:38;;;;;;;275.95;28.10;;;10.00;99.90;;;;;;5001400;28;20053;-49
2022/10/14 02:00:05;;;;;;;376.75;31.42;;;10.00;99.90;;;;;;5029681;28;20071;-48
2022/10/14 02:02:36;;;;;;;351.70;32.10;;;10.00;99.90;;;;;;5044974;28;20653;-45
2022/10/14 02:05:11;;;;;;;353.65;31.02;;;10.00;99.90;;;;;;5056285;28;20047;-46
2022/10/14 02:07:43;;;;;;;387.55;33.30;;;9.90;99.90;;;;;;5020837;28;20576;-48
2022/10/14 02:10:18;;;;;;;373.30;34.35;;;9.90;99.90;;;;;;5039750;28;20401;-47
2022/10/14 02:13:12;;;;;;;342.98;32.10;;;9.90;99.90;;;;;;5059390;28;20414;-50
2022/10/14 02:15:51;;;;;;;337.42;31.05;;;10.00;99.90;;;;;;5047978;28;20079;-46
2022/10/14 02:18:55;;;;;;;448.50;36.33;;;10.00;99.90;;;;;;5058225;28;20067;-46
2022/10/14 02:21:40;;;;;;;210.82;26.83;;;10.00;99.90;;;;;;5059003;28;20048;-47
2022/10/14 02:24:17;;;;;;;454.65;37.47;;;10.10;99.90;;;;;;5058612;28;20048;-50
2022/10/14 02:26:45;;;;;;;458.17;34.65;;;10.10;99.90;;;;;;5053335;28;20059;-48
2022/10/14 02:29:11;;;;;;;309.10;27.17;;;10.10;99.90;;;;;;5047496;28;20090;-50
2022/10/14 02:31:39;;;;;;;266.52;26.35;;;10.10;99.90;;;;;;5057098;28;20481;-47
2022/10/14 02:34:09;;;;;;;243.85;27.10;;;10.10;99.90;;;;;;5058344;28;20127;-50
2022/10/14 02:36:36;;;;;;;232.73;27.48;;;10.10;99.90;;;;;;5040689;28;20052;-47
2022/10/14 02:39:05;;;;;;;181.23;24.35;;;10.10;99.90;;;;;;5037423;28;20052;-47
2022/10/14 02:41:34;;;;;;;172.70;24.27;;;10.10;99.90;;;;;;5038180;28;20045;-46
2022/10/14 02:44:00;;;;;;;145.23;26.08;;;10.10;99.90;;;;;;5038345;28;20048;-46
2022/10/14 02:46:27;;;;;;;156.80;24.63;;;10.00;99.90;;;;;;5055515;28;20474;-47
2022/10/14 02:48:53;;;;;;;141.50;24.02;;;10.00;99.90;;;;;;5057364;28;20040;-48
2022/10/14 02:51:19;;;;;;;178.57;25.73;;;10.00;99.90;;;;;;5057906;28;20075;-47
2022/10/14 02:53:44;;;;;;;120.88;22.08;;;10.00;99.90;;;;;;5043779;28;20045;-46
2022/10/14 02:56:14;;;;;;;252.48;28.10;;;10.00;99.90;;;;;;5038234;28;20087;-48
2022/10/14 02:58:40;;;;;;;192.73;26.10;;;9.90;99.90;;;;;;5036817;28;20048;-50
2022/10/14 03:01:06;;;;;;;144.93;23.35;;;10.00;99.90;;;;;;5037679;28;20473;-48
2022/10/14 03:03:31;;;;;;;186.80;24.75;;;10.00;99.90;;;;;;5049798;28;20048;-47
2022/10/14 03:05:57;;;;;;;183.07;24.05;;;9.90;99.90;;;;;;5057428;28;20121;-48
2022/10/14 03:08:22;;;;;;;196.85;25.30;;;10.00;99.90;;;;;;5050912;28;20045;-51
2022/10/14 03:10:48;;;;;;;236.15;27.92;;;10.00;99.90;;;;;;5057731;28;20425;-47
2022/10/14 03:13:14;;;;;;;144.63;24.98;;;10.00;99.90;;;;;;5057548;28;20046;-46
2022/10/14 03:15:40;;;;;;;257.67;30.23;;;10.00;99.90;;;;;;5040084;28;20142;-46
2022/10/14 03:18:06;;;;;;;263.48;28.58;;;10.00;99.90;;;;;;5057849;28;20091;-50
2022/10/14 03:20:31;;;;;;;293.05;30.02;;;10.00;99.90;;;;;;5058137;28;20045;-45
2022/10/14 03:22:57;;;;;;;179.57;25.10;;;9.90;99.90;;;;;;5057752;28;20032;-48
2022/10/14 03:25:23;;;;;;;219.55;27.58;;;9.90;99.90;;;;;;5049198;28;20048;-51
2022/10/14 03:27:49;;;;;;;218.75;27.30;;;9.80;99.90;;;;;;5037732;28;20111;-46
2022/10/14 03:30:14;;;;;;;184.68;24.10;;;9.90;99.90;;;;;;5048466;28;20083;-47
2022/10/14 03:32:40;;;;;;;241.35;26.88;;;9.80;99.90;;;;;;5037664;28;20194;-45
2022/10/14 03:35:07;;;;;;;267.88;33.60;;;9.80;99.90;;;;;;5046597;28;20071;-49
2022/10/14 03:37:32;;;;;;;241.35;34.78;;;9.90;99.90;;;;;;5058045;28;20098;-45
2022/10/14 03:39:58;;;;;;;180.45;31.83;;;9.80;99.90;;;;;;5057200;28;20307;-43
2022/10/14 03:42:23;;;;;;;142.88;32.67;;;9.80;99.90;;;;;;5057354;28;20489;-47
2022/10/14 03:44:49;;;;;;;132.25;31.70;;;9.80;99.90;;;;;;5055221;28;20068;-46
2022/10/14 03:47:15;;;;;;;114.38;30.95;;;9.90;99.90;;;;;;5042847;28;20477;-47
2022/10/14 03:49:41;;;;;;;135.77;30.88;;;9.80;99.90;;;;;;5035979;28;20037;-50
2022/10/14 03:52:06;;;;;;;135.43;29.05;;;9.80;99.90;;;;;;5036853;28;20087;-48
2022/10/14 03:54:32;;;;;;;153.40;26.88;;;9.80;99.90;;;;;;5055825;28;20071;-49
2022/10/14 03:56:57;;;;;;;189.38;27.23;;;9.80;99.90;;;;;;5053929;28;20408;-48
2022/10/14 03:59:23;;;;;;;332.13;32.20;;;9.80;99.90;;;;;;5056250;28;20040;-46
2022/10/14 04:01:49;;;;;;;226.88;27.60;;;9.80;99.90;;;;;;5054808;28;20044;-50
2022/10/14 04:04:14;;;;;;;267.70;30.13;;;9.70;99.90;;;;;;5051155;28;20406;-49
2022/10/14 04:06:40;;;;;;;229.60;30.23;;;9.70;99.90;;;;;;5047446;28;20044;-47
2022/10/14 04:09:06;;;;;;;158.98;25.90;;;9.70;99.90;;;;;;5045983;28;20059;-47
2022/10/14 04:11:31;;;;;;;145.32;26.27;;;9.60;99.90;;;;;;5057254;28;20076;-47
2022/10/14 04:13:58;;;;;;;132.20;26.70;;;9.70;99.90;;;;;;5057373;28;20069;-46
2022/10/14 04:16:24;;;;;;;154.75;26.70;;;9.70;99.90;;;;;;5057047;28;20481;-48
2022/10/14 04:18:50;;;;;;;118.32;25.35;;;9.70;99.90;;;;;;5054482;28;20082;-47
2022/10/14 04:21:15;;;;;;;117.85;26.30;;;9.70;99.90;;;;;;5044405;28;20164;-50
2022/10/14 04:23:41;;;;;;;129.98;26.45;;;9.80;99.90;;;;;;5057243;28;20812;-49
2022/10/14 04:26:08;;;;;;;152.13;26.40;;;9.70;99.90;;;;;;5055117;28;20053;-49
2022/10/14 04:28:35;;;;;;;121.93;24.75;;;9.80;99.90;;;;;;5054087;28;20106;-46
2022/10/14 04:31:01;;;;;;;80.30;25.38;;;9.80;99.90;;;;;;5055563;28;20036;-48
2022/10/14 04:33:27;;;;;;;176.40;28.67;;;9.80;99.90;;;;;;5057088;28;20045;-48
2022/10/14 04:36:00;;;;;;;143.27;29.35;;;9.80;99.90;;;;;;5057312;28;20110;-49
2022/10/14 04:38:27;;;;;;;138.38;28.08;;;9.80;99.90;;;;;;5055915;28;20488;-47
2022/10/14 04:40:53;;;;;;;150.98;29.30;;;9.80;99.90;;;;;;5057213;28;20050;-46
2022/10/14 04:43:19;;;;;;;155.63;28.27;;;9.80;99.90;;;;;;5057131;28;20075;-48
2022/10/14 04:45:45;;;;;;;86.97;26.20;;;9.80;99.90;;;;;;5056892;28;20366;-48
2022/10/14 04:48:11;;;;;;;133.23;28.63;;;9.80;99.90;;;;;;5047482;28;20041;-48
2022/10/14 04:50:36;;;;;;;130.32;27.77;;;9.90;99.90;;;;;;5051709;28;20048;-48
2022/10/14 04:53:02;;;;;;;141.43;28.48;;;9.90;99.90;;;;;;5056464;28;20067;-46
2022/10/14 04:55:28;;;;;;;102.00;28.00;;;9.90;99.90;;;;;;5056194;28;20048;-49
2022/10/14 04:57:53;;;;;;;107.10;30.58;;;9.90;99.90;;;;;;5055932;28;20052;-49
2022/10/14 05:00:19;;;;;;;125.85;42.55;;;9.90;99.90;;;;;;5054883;28;20044;-47
2022/10/14 05:02:45;;;;;;;93.30;28.60;;;9.90;99.90;;;;;;5035332;28;20116;-48
2022/10/14 05:05:11;;;;;;;319.70;32.88;;;9.90;99.90;;;;;;5036350;28;20045;-49
2022/10/14 05:07:36;;;;;;;243.88;39.15;;;9.80;99.90;;;;;;5040441;28;20743;-47
2022/10/14 05:10:03;;;;;;;279.40;33.90;;;9.80;99.90;;;;;;5053911;28;20474;-49
2022/10/14 05:12:30;;;;;;;227.57;35.58;;;9.80;99.90;;;;;;5060288;28;20044;-48
2022/10/14 05:14:56;;;;;;;180.60;31.85;;;9.80;99.90;;;;;;5060517;28;20040;-51
2022/10/14 05:17:21;;;;;;;262.50;32.17;;;9.80;99.90;;;;;;5060400;28;20094;-46
2022/10/14 05:19:47;;;;;;;215.27;30.52;;;9.80;99.90;;;;;;5059430;28;20442;-49
2022/10/14 05:22:13;;;;;;;219.27;30.20;;;9.80;99.90;;;;;;5059495;28;20051;-47
2022/10/14 05:24:38;;;;;;;227.90;30.55;;;9.80;99.90;;;;;;5059533;28;20048;-47
2022/10/14 05:27:04;;;;;;;141.57;28.45;;;9.80;99.90;;;;;;5060334;28;20076;-48
2022/10/14 05:29:30;;;;;;;199.15;29.92;;;9.80;99.90;;;;;;5059207;28;20127;-45
2022/10/14 05:31:56;;;;;;;237.35;32.92;;;9.80;99.90;;;;;;5059004;28;20040;-46
2022/10/14 05:34:21;;;;;;;201.90;30.45;;;9.80;99.90;;;;;;5058901;28;20047;-45
2022/10/14 05:36:47;;;;;;;184.57;30.55;;;9.80;99.90;;;;;;5059901;28;20040;-49
2022/10/14 05:39:13;;;;;;;259.75;33.50;;;9.90;99.90;;;;;;5058991;28;20051;-47
2022/10/14 05:41:38;;;;;;;192.13;28.98;;;9.90;99.90;;;;;;5059197;28;20047;-47
2022/10/14 05:44:05;;;;;;;149.25;24.60;;;9.90;99.90;;;;;;5045457;28;20071;-48
2022/10/14 05:46:30;;;;;;;162.15;26.27;;;9.90;99.90;;;;;;5040520;28;20049;-43
2022/10/14 05:48:59;;;;;;;174.80;28.00;;;9.90;99.90;;;;;;5039233;28;20524;-48
2022/10/14 05:51:25;;;;;;;191.45;26.25;;;9.80;99.90;;;;;;5039660;28;20052;-50
2022/10/14 05:53:51;;;;;;;165.77;23.80;;;9.80;99.90;;;;;;5047774;28;20072;-49
2022/10/14 05:56:17;;;;;;;164.02;22.38;;;9.80;99.90;;;;;;5059788;28;20119;-45
2022/10/14 05:58:42;;;;;;;55.80;20.30;;;9.80;99.90;;;;;;5059290;28;20052;-49
2022/10/14 06:01:09;;;;;;;116.72;21.70;;;9.80;99.90;;;;;;5059538;28;20044;-51
2022/10/14 06:03:35;;;;;;;112.78;20.58;;;9.90;99.90;;;;;;5047793;28;20048;-45
2022/10/14 06:06:01;;;;;;;69.25;21.50;;;9.80;99.90;;;;;;5050664;28;20429;-42
2022/10/14 06:08:27;;;;;;;92.90;21.88;;;9.80;99.90;;;;;;5038557;28;20048;-47
2022/10/14 06:10:53;;;;;;;171.95;22.90;;;9.80;99.90;;;;;;5021263;28;20071;-45
2022/10/14 06:13:19;;;;;;;123.65;19.98;;;9.80;99.90;;;;;;5039325;28;20509;-43
2022/10/14 06:15:45;;;;;;;121.07;21.05;;;9.80;99.90;;;;;;5053783;28;20040;-43
2022/10/14 06:18:10;;;;;;;106.25;21.83;;;9.90;99.90;;;;;;5058371;28;20505;-43
2022/10/14 06:20:36;;;;;;;135.63;22.90;;;9.90;99.90;;;;;;5059435;28;20045;-49
2022/10/14 06:23:02;;;;;;;163.68;23.20;;;9.90;99.90;;;;;;5059884;28;20059;-45
2022/10/14 06:25:28;;;;;;;165.07;22.77;;;9.90;99.90;;;;;;5059328;28;20119;-44
2022/10/14 06:27:54;;;;;;;121.93;22.13;;;9.90;99.90;;;;;;5043670;28;20117;-42
2022/10/14 06:30:21;;;;;;;114.25;22.90;;;10.00;99.90;;;;;;5058437;28;20554;-42
2022/10/14 06:32:46;;;;;;;123.13;22.23;;;10.00;99.90;;;;;;5058511;28;20423;-44
2022/10/14 06:35:12;;;;;;;159.68;24.20;;;10.00;99.90;;;;;;5057818;28;20032;-42
2022/10/14 06:37:38;;;;;;;129.82;22.80;;;10.00;99.90;;;;;;5056764;28;20154;-45
2022/10/14 06:40:04;;;;;;;94.75;22.02;;;10.10;99.90;;;;;;5038142;28;20055;-45
2022/10/14 06:42:30;;;;;;;131.95;23.20;;;10.10;99.90;;;;;;5045934;28;20442;-44
2022/10/14 06:44:55;;;;;;;97.97;23.05;;;10.10;99.90;;;;;;5049440;28;20304;-42
2022/10/14 06:47:21;;;;;;;87.63;22.77;;;10.10;99.90;;;;;;5049628;28;20397;-43
2022/10/14 06:49:46;;;;;;;62.25;21.52;;;10.10;99.90;;;;;;5048182;28;20566;-43
2022/10/14 06:52:12;;;;;;;106.05;24.75;;;10.10;99.90;;;;;;5047816;28;20424;-46
2022/10/14 06:54:38;;;;;;;87.90;23.52;;;10.20;99.90;;;;;;5058478;28;20045;-43
2022/10/14 06:57:03;;;;;;;97.63;23.60;;;10.20;99.90;;;;;;5050926;28;20114;-46
2022/10/14 06:59:29;;;;;;;73.97;23.83;;;10.20;99.90;;;;;;5050891;28;20067;-44
2022/10/14 07:01:55;;;;;;;41.47;21.08;;;10.20;99.90;;;;;;5038924;28;20041;-43
2022/10/14 07:04:21;;;;;;;52.28;20.92;;;10.20;99.90;;;;;;5050226;28;20128;-43
2022/10/14 07:06:46;;;;;;;50.22;22.23;;;10.20;99.90;;;;;;5038741;28;20049;-46
2022/10/14 07:09:12;;;;;;;45.08;21.80;;;10.30;99.90;;;;;;5057255;28;20052;-45
2022/10/14 07:11:37;;;;;;;44.88;21.83;;;10.30;99.90;;;;;;5057880;28;20462;-45
2022/10/14 07:14:03;;;;;;;33.85;21.30;;;10.30;99.90;;;;;;5057322;28;20047;-47
2022/10/14 07:16:29;;;;;;;64.72;23.40;;;10.40;99.90;;;;;;5052194;28;20041;-49
2022/10/14 07:18:54;;;;;;;33.65;20.50;;;10.30;99.90;;;;;;5044278;28;20441;-42
2022/10/14 07:21:20;;;;;;;35.83;21.85;;;10.40;99.90;;;;;;5043869;28;20097;-43
2022/10/14 07:23:46;;;;;;;45.50;23.27;;;10.40;99.90;;;;;;5052678;28;20040;-45
2022/10/14 07:26:12;;;;;;;37.20;22.10;;;10.40;99.90;;;;;;5056163;28;20147;-45
2022/10/14 07:28:37;;;;;;;35.33;21.27;;;10.50;99.90;;;;;;5050475;28;20052;-44
2022/10/14 07:31:06;;;;;;;36.33;23.67;;;10.50;99.90;;;;;;5042941;28;20037;-44
2022/10/14 07:33:33;;;;;;;34.33;21.52;;;10.50;99.90;;;;;;5051230;28;20474;-47
2022/10/14 07:36:05;;;;;;;40.20;22.52;;;10.50;99.90;;;;;;5055604;28;20044;-50
2022/10/14 07:38:31;;;;;;;39.45;23.58;;;10.50;99.90;;;;;;5036728;28;20051;-42
2022/10/14 07:41:15;;;;;;;33.58;22.60;;;10.60;99.90;;;;;;5037383;28;20057;-45
2022/10/14 07:43:43;;;;;;;38.72;22.90;;;10.60;99.90;;;;;;5038120;28;20144;-43
2022/10/14 07:46:11;;;;;;;28.88;21.25;;;10.70;99.90;;;;;;5050028;28;20685;-47
2022/10/14 07:48:37;;;;;;;35.22;22.98;;;10.70;99.90;;;;;;5037552;28;20049;-44
2022/10/14 07:51:04;;;;;;;34.92;22.38;;;10.70;99.90;;;;;;5041415;28;20174;-46
2022/10/14 07:53:30;;;;;;;50.67;26.13;;;10.70;99.90;;;;;;5058450;28;20478;-43
2022/10/14 07:55:57;;;;;;;42.70;25.02;;;10.80;99.90;;;;;;5051739;28;20051;-46
2022/10/14 07:58:26;;;;;;;36.20;23.75;;;10.80;99.90;;;;;;5037946;28;20077;-45
2022/10/14 08:00:53;;;;;;;42.58;23.75;;;10.80;99.90;;;;;;5021563;28;20049;-44
2022/10/14 08:03:20;;;;;;;38.83;23.10;;;10.80;99.90;;;;;;5031367;28;20122;-46
2022/10/14 08:05:46;;;;;;;38.38;23.90;;;10.90;99.90;;;;;;5033787;28;20048;-48
2022/10/14 08:08:12;;;;;;;39.45;24.00;;;10.80;99.90;;;;;;5047991;28;20785;-46
2022/10/14 08:10:39;;;;;;;40.42;24.52;;;10.90;99.90;;;;;;5046198;28;20033;-46
2022/10/14 08:13:06;;;;;;;42.63;23.60;;;10.90;99.90;;;;;;5041548;28;20075;-44
2022/10/14 08:15:39;;;;;;;37.97;24.38;;;10.90;99.90;;;;;;5041065;28;20084;-43
2022/10/14 08:18:06;;;;;;;35.58;24.42;;;10.90;99.90;;;;;;5041682;28;20053;-44
2022/10/14 08:20:32;;;;;;;44.97;25.13;;;11.00;99.90;;;;;;5044451;28;20052;-44
2022/10/14 08:22:58;;;;;;;61.33;26.73;;;11.00;99.90;;;;;;5022003;28;20343;-46
2022/10/14 08:25:24;;;;;;;50.53;27.25;;;11.00;99.90;;;;;;5033962;28;20049;-44
2022/10/14 08:27:50;;;;;;;45.00;25.67;;;11.00;99.90;;;;;;5034034;28;20580;-46
2022/10/14 08:30:16;;;;;;;51.35;27.63;;;11.00;99.90;;;;;;5031812;28;20048;-43
2022/10/14 08:32:42;;;;;;;54.50;28.13;;;11.10;99.90;;;;;;5041910;28;20507;-42
2022/10/14 08:35:09;;;;;;;64.75;29.00;;;11.10;99.90;;;;;;5035974;28;20048;-51
2022/10/14 08:37:35;;;;;;;62.55;28.20;;;11.10;99.90;;;;;;5029049;28;20076;-48
2022/10/14 08:40:01;;;;;;;48.67;28.23;;;11.20;99.90;;;;;;5045657;28;20136;-45
2022/10/14 08:42:36;;;;;;;55.53;29.38;;;11.20;99.90;;;;;;5042794;28;20057;-43
2022/10/14 08:45:14;;;;;;;53.03;28.48;;;11.30;99.90;;;;;;5049023;28;20106;-43
2022/10/14 08:47:43;;;;;;;60.42;29.73;;;11.20;99.90;;;;;;5050783;28;20106;-47
2022/10/14 08:50:28;;;;;;;62.55;30.58;;;11.30;99.90;;;;;;5039559;28;20372;-47
2022/10/14 08:53:01;;;;;;;53.63;29.48;;;11.30;99.90;;;;;;5040999;28;20052;-49
2022/10/14 08:55:38;;;;;;;62.55;31.27;;;11.30;99.90;;;;;;5035242;28;20140;-43
2022/10/14 08:58:27;;;;;;;67.45;31.30;;;11.40;99.90;;;;;;5028075;28;20304;-45
2022/10/14 09:00:54;;;;;;;68.78;31.50;;;11.40;99.90;;;;;;5044047;28;20802;-49
2022/10/14 09:03:31;;;;;;;69.35;32.35;;;11.40;99.90;;;;;;5041031;28;20444;-45
2022/10/14 09:06:03;;;;;;;55.70;29.70;;;11.50;99.90;;;;;;5035169;28;20174;-47
2022/10/14 09:08:45;;;;;;;62.90;32.38;;;11.50;99.90;;;;;;5039922;28;20061;-46
2022/10/14 09:11:18;;;;;;;60.47;31.55;;;11.50;99.90;;;;;;5039286;28;20052;-43
2022/10/14 09:13:50;;;;;;;60.72;28.80;;;11.60;99.90;;;;;;5037649;28;20059;-46
2022/10/14 09:16:18;;;;;;;67.68;31.15;;;11.50;99.90;;;;;;5031788;28;20041;-44
2022/10/14 09:18:52;;;;;;;59.63;28.98;;;11.60;99.90;;;;;;5038204;28;20249;-43
2022/10/14 09:21:38;;;;;;;68.43;29.60;;;11.60;99.90;;;;;;5041198;28;20410;-43
2022/10/14 09:24:31;;;;;;;51.20;27.67;;;11.60;99.90;;;;;;5039878;28;20409;-43
2022/10/14 09:27:08;;;;;;;61.70;29.30;;;11.70;99.90;;;;;;5036462;28;20044;-44
2022/10/14 09:30:12;;;;;;;42.17;24.90;;;11.80;99.90;;;;;;5049031;28;20049;-50
2022/10/14 09:32:49;;;;;;;47.70;25.25;;;11.70;99.90;;;;;;5001638;28;20070;-46
2022/10/14 09:35:34;;;;;;;47.65;24.50;;;11.80;99.90;;;;;;4997290;28;20189;-45
2022/10/14 09:38:00;;;;;;;36.70;22.30;;;11.80;99.90;;;;;;4994050;28;20061;-48
2022/10/14 09:40:25;;;;;;;43.72;23.63;;;11.80;99.90;;;;;;4998533;28;20041;-46
2022/10/14 09:43:08;;;;;;;37.50;21.52;;;11.80;99.90;;;;;;4977375;28;20495;-47
2022/10/14 09:45:58;;;;;;;37.65;21.85;;;11.90;99.90;;;;;;5006205;28;20124;-45
2022/10/14 09:48:45;;;;;;;33.53;20.42;;;11.90;99.90;;;;;;4998411;28;20164;-50
2022/10/14 09:51:25;;;;;;;36.80;21.33;;;12.00;99.90;;;;;;4995119;28;20049;-47
2022/10/14 09:53:53;;;;;;;30.40;19.67;;;12.10;99.90;;;;;;5006690;28;20290;-49
2022/10/14 09:56:29;;;;;;;32.47;19.85;;;12.10;99.90;;;;;;4994298;28;20074;-50
2022/10/14 09:58:57;;;;;;;33.25;19.35;;;12.20;99.90;;;;;;4996869;28;20041;-44
2022/10/14 10:01:23;;;;;;;27.40;17.83;;;12.20;99.90;;;;;;5001938;28;20107;-43
2022/10/14 10:03:51;;;;;;;31.50;17.50;;;12.20;99.90;;;;;;4997064;28;20057;-46
2022/10/14 10:06:20;;;;;;;24.70;16.88;;;12.20;99.90;;;;;;5008733;28;20129;-48
2022/10/14 10:08:52;;;;;;;27.73;17.35;;;12.30;99.90;;;;;;5038141;28;20052;-45
2022/10/14 10:11:27;;;;;;;29.63;17.85;;;12.30;99.90;;;;;;5046020;28;20518;-43
2022/10/14 10:13:53;;;;;;;33.35;18.77;;;12.30;99.90;;;;;;5044345;28;20044;-43
2022/10/14 10:16:31;;;;;;;27.88;16.00;;;12.30;99.90;;;;;;5044235;28;20060;-44
2022/10/14 10:19:18;;;;;;;22.00;15.45;;;12.40;99.90;;;;;;5048559;28;20044;-49
2022/10/14 10:21:43;;;;;;;24.45;14.68;;;12.40;99.90;;;;;;5051391;28;20061;-44
2022/10/14 10:24:21;;;;;;;19.60;14.00;;;12.50;99.90;;;;;;5047642;28;20062;-49
2022/10/14 10:26:48;;;;;;;22.10;13.68;;;12.50;99.90;;;;;;5045673;28;20044;-50
2022/10/14 10:29:31;;;;;;;22.23;13.95;;;12.60;99.90;;;;;;5039963;28;20048;-43
2022/10/14 10:32:23;;;;;;;23.90;14.13;;;12.60;99.90;;;;;;5045679;28;20053;-50
2022/10/14 10:35:04;;;;;;;19.73;13.25;;;12.70;99.90;;;;;;5035761;28;20123;-51
2022/10/14 10:37:32;;;;;;;20.60;13.27;;;12.80;99.90;;;;;;5041216;28;20052;-48
2022/10/14 10:40:00;;;;;;;18.58;11.80;;;12.90;99.90;;;;;;5046101;28;20045;-48
2022/10/14 10:42:36;;;;;;;16.52;11.52;;;12.90;99.90;;;;;;5051308;28;20586;-46
2022/10/14 10:45:15;;;;;;;16.02;10.80;;;12.90;99.90;;;;;;5039382;28;20470;-45
2022/10/14 10:47:54;;;;;;;21.67;11.85;;;13.00;99.90;;;;;;5050074;28;20623;-50
2022/10/14 10:50:28;;;;;;;12.75;9.75;;;13.00;99.90;;;;;;5035639;28;20040;-43
2022/10/14 10:53:17;;;;;;;15.98;11.52;;;13.10;99.90;;;;;;5042829;28;20143;-47
2022/10/14 10:55:58;;;;;;;16.58;10.93;;;13.10;99.90;;;;;;5039050;28;20589;-49
2022/10/14 10:58:30;;;;;;;17.35;11.10;;;13.10;99.90;;;;;;5037800;28;20045;-48
2022/10/14 11:01:24;;;;;;;15.50;11.00;;;13.10;99.90;;;;;;5039911;28;20049;-49
2022/10/14 11:04:11;;;;;;;13.93;10.00;;;13.20;99.90;;;;;;5040566;28;20045;-48
2022/10/14 11:13:13;;;;;;;14.60;9.20;;;13.20;99.90;;;;;;4978015;28;20054;-45
2022/10/14 11:16:03;;;;;;;12.85;9.25;;;13.20;99.90;;;;;;4955690;28;20809;-46
2022/10/14 11:18:47;;;;;;;15.48;10.10;;;13.20;99.90;;;;;;4955057;28;20172;-48
2022/10/14 11:21:38;;;;;;;14.18;9.88;;;13.10;99.90;;;;;;4968212;28;20125;-51
2022/10/14 11:24:09;;;;;;;16.25;10.75;;;13.10;99.90;;;;;;4956553;28;20238;-47
2022/10/14 11:27:19;;;;;;;13.25;10.10;;;13.10;99.90;;;;;;4963200;28;20061;-45
2022/10/14 11:29:53;;;;;;;14.75;9.68;;;13.10;99.90;;;;;;4948213;28;20046;-48
2022/10/14 11:32:29;;;;;;;14.38;10.27;;;13.20;99.90;;;;;;4919390;28;20610;-48
2022/10/14 11:34:55;;;;;;;11.27;8.93;;;13.20;99.90;;;;;;4951454;28;20077;-44
2022/10/14 11:37:57;;;;;;;14.07;10.15;;;13.30;99.90;;;;;;4950853;28;20880;-45
2022/10/14 11:40:29;;;;;;;13.95;9.68;;;13.30;99.90;;;;;;4948048;28;20059;-48
2022/10/14 11:43:19;;;;;;;14.38;9.70;;;13.30;99.90;;;;;;4942065;28;20063;-43
2022/10/14 11:45:58;;;;;;;14.18;9.70;;;13.30;99.90;;;;;;4935620;28;20051;-51
2022/10/14 11:48:27;;;;;;;12.93;8.68;;;13.30;99.90;;;;;;4949909;28;20516;-47
2022/10/14 11:51:09;;;;;;;11.77;8.77;;;13.30;99.90;;;;;;5005661;28;20053;-46
2022/10/14 11:54:05;;;;;;;15.15;10.15;;;13.30;99.90;;;;;;4992522;28;20085;-45
2022/10/14 11:56:40;;;;;;;13.85;9.35;;;13.30;99.90;;;;;;4986169;28;20046;-46
2022/10/14 11:59:24;;;;;;;15.93;9.95;;;13.30;99.90;;;;;;4972009;28;20080;-48
2022/10/14 12:01:58;;;;;;;16.77;10.13;;;13.40;99.90;;;;;;4969788;28;20554;-49
2022/10/14 12:04:33;;;;;;;12.27;9.02;;;13.40;99.90;;;;;;4986567;28;20043;-48
2022/10/14 12:07:11;;;;;;;14.50;9.48;;;13.40;99.90;;;;;;5019960;28;20057;-46
2022/10/14 12:09:52;;;;;;;14.43;9.50;;;13.40;99.90;;;;;;5036980;28;20040;-51
2022/10/14 12:12:20;;;;;;;12.30;8.77;;;13.40;99.90;;;;;;5031865;28;20060;-47
2022/10/14 12:15:00;;;;;;;14.38;8.93;;;13.40;99.90;;;;;;5038114;28;20040;-46
2022/10/14 12:17:52;;;;;;;12.90;7.65;;;13.50;99.90;;;;;;5048580;28;20627;-48
2022/10/14 12:20:51;;;;;;;13.02;8.15;;;13.40;99.90;;;;;;5048128;28;20044;-46
2022/10/14 12:23:28;;;;;;;10.18;8.20;;;13.50;99.90;;;;;;5039952;28;20060;-52
2022/10/14 12:26:03;;;;;;;11.10;7.82;;;13.60;99.90;;;;;;5033354;28;20490;-44
2022/10/14 12:28:29;;;;;;;11.48;7.22;;;13.60;99.90;;;;;;5034326;28;20178;-47
2022/10/14 12:31:21;;;;;;;10.65;8.57;;;13.50;99.90;;;;;;5034797;28;20149;-47
2022/10/14 12:34:14;;;;;;;12.63;8.68;;;13.50;99.90;;;;;;5049840;28;20373;-47
2022/10/14 12:36:42;;;;;;;11.00;8.90;;;13.50;99.90;;;;;;5045727;28;20052;-47
2022/10/14 12:39:17;;;;;;;16.95;11.90;;;13.50;99.90;;;;;;5031992;28;20076;-46
2022/10/14 12:42:12;;;;;;;13.23;10.27;;;13.50;99.90;;;;;;5042731;28;20436;-51
2022/10/14 12:44:46;;;;;;;15.20;11.07;;;13.60;99.90;;;;;;5037262;28;20122;-48
2022/10/14 12:47:39;;;;;;;15.30;10.65;;;13.60;99.90;;;;;;5034058;28;20131;-44
2022/10/14 12:50:13;;;;;;;14.10;10.77;;;13.50;99.90;;;;;;5030984;28;20053;-44
2022/10/14 12:52:44;;;;;;;16.08;12.30;;;13.60;99.90;;;;;;5040636;28;20485;-50